createdAt,value
2023-04-17T00:03:16.972Z,101482.00
2023-04-17T00:13:17.788Z,101480.00
2023-04-17T00:23:17.802Z,101478.00
2023-04-17T00:33:17.790Z,101474.00
2023-04-17T00:43:17.818Z,101471.00
2023-04-17T00:53:17.804Z,101469.00
2023-04-17T01:03:17.996Z,101465.00
2023-04-17T01:13:19.597Z,101463.00
2023-04-17T01:23:20.350Z,101461.00
2023-04-17T01:33:21.040Z,101461.00
2023-04-17T01:43:20.864Z,101461.00
2023-04-17T01:53:21.401Z,101463.00
2023-04-17T02:03:23.969Z,101465.00
2023-04-17T02:13:23.913Z,101469.00
2023-04-17T02:34:29.710Z,101472.00
2023-04-17T02:44:30.193Z,101469.00
2023-04-17T02:54:30.441Z,101472.00
2023-04-17T03:04:33.053Z,101474.00
2023-04-17T03:14:33.135Z,101476.00
2023-04-17T03:24:33.793Z,101480.00
2023-04-17T03:34:34.359Z,101482.00
2023-04-17T03:44:34.200Z,101482.00
2023-04-17T03:54:36.052Z,101484.00
2023-04-17T04:04:38.172Z,101490.00
2023-04-17T04:14:41.194Z,101494.00
2023-04-17T04:24:40.595Z,101494.00
2023-04-17T04:34:41.618Z,101500.00
2023-04-17T04:44:43.136Z,101502.00
2023-04-17T04:54:43.179Z,101510.00
2023-04-17T05:04:43.717Z,101516.00
2023-04-17T05:14:48.422Z,101525.00
2023-04-17T05:24:50.085Z,101533.00
2023-04-17T05:34:51.861Z,101537.00
2023-04-17T05:44:52.248Z,101543.00
2023-04-17T05:54:53.201Z,101547.00
2023-04-17T06:04:53.853Z,101557.00
2023-04-17T06:14:56.296Z,101561.00
2023-04-17T06:24:56.801Z,101561.00
2023-04-17T06:34:59.865Z,101563.00
2023-04-17T06:45:01.372Z,101575.00
2023-04-17T06:55:02.010Z,101583.00
2023-04-17T07:05:02.409Z,101593.00
2023-04-17T07:15:02.480Z,101599.00
2023-04-17T07:25:02.340Z,101609.00
2023-04-17T07:35:02.457Z,101620.00
2023-04-17T07:45:02.380Z,101628.00
2023-04-17T07:55:02.326Z,101630.00
2023-04-17T08:05:02.526Z,101636.00
2023-04-17T08:15:03.379Z,101642.00
2023-04-17T08:25:05.263Z,101646.00
2023-04-17T08:35:05.599Z,101648.00
2023-04-17T08:45:05.843Z,101659.00
2023-04-17T08:55:06.730Z,101657.00
2023-04-17T09:05:07.183Z,101661.00
2023-04-17T09:15:07.518Z,101663.00
2023-04-17T09:25:08.074Z,101667.00
2023-04-17T09:35:08.530Z,101655.00
2023-04-17T09:45:08.530Z,101661.00
2023-04-17T09:55:09.954Z,101661.00
2023-04-17T10:05:10.672Z,101655.00
2023-04-17T10:15:11.076Z,101646.00
2023-04-17T10:25:12.104Z,101644.00
2023-04-17T10:35:12.601Z,101638.00
2023-04-17T10:45:12.664Z,101626.00
2023-04-17T10:55:13.930Z,101614.00
2023-04-17T11:05:13.638Z,101611.00
2023-04-17T11:15:13.724Z,101605.00
2023-04-17T11:25:13.617Z,101597.00
2023-04-17T11:35:14.110Z,101597.00
2023-04-17T11:45:14.760Z,101597.00
2023-04-17T11:55:14.904Z,101595.00
2023-04-17T12:05:14.891Z,101591.00
2023-04-17T12:15:18.943Z,101587.00
2023-04-17T12:25:18.707Z,101583.00
2023-04-17T12:35:19.041Z,101579.00
2023-04-17T12:45:18.853Z,101579.00
2023-04-17T12:55:18.813Z,101577.00
2023-04-17T13:05:18.934Z,101565.00
2023-04-17T13:15:18.871Z,101563.00
2023-04-17T13:25:18.813Z,101561.00
2023-04-17T13:35:18.884Z,101557.00
2023-04-17T13:45:18.988Z,101553.00
2023-04-17T13:55:18.915Z,101547.00
2023-04-17T14:05:18.954Z,101541.00
2023-04-17T14:15:19.031Z,101535.00
2023-04-17T14:25:18.955Z,101527.00
2023-04-17T14:35:18.882Z,101525.00
2023-04-17T14:45:19.064Z,101531.00
2023-04-17T14:55:18.954Z,101525.00
2023-04-17T15:05:20.527Z,101518.00
2023-04-17T15:15:20.999Z,101512.00
2023-04-17T15:25:24.074Z,101508.00
2023-04-17T15:35:24.077Z,101508.00
2023-04-17T15:45:25.517Z,101510.00
2023-04-17T15:55:26.080Z,101506.00
2023-04-17T16:05:26.143Z,101502.00
2023-04-17T16:15:26.074Z,101496.00
2023-04-17T16:25:26.141Z,101502.00
2023-04-17T16:35:26.354Z,101500.00
2023-04-17T16:45:26.276Z,101496.00
2023-04-17T16:55:26.134Z,101500.00
2023-04-17T17:05:26.385Z,101492.00
2023-04-17T17:15:26.154Z,101490.00
2023-04-17T17:25:26.153Z,101494.00
2023-04-17T17:35:26.099Z,101492.00
2023-04-17T17:45:26.312Z,101494.00
2023-04-17T17:55:26.168Z,101498.00
2023-04-17T18:05:26.240Z,101504.00
2023-04-17T18:15:26.245Z,101510.00
2023-04-17T18:25:26.188Z,101514.00
2023-04-17T18:35:26.307Z,101518.00
2023-04-17T18:45:27.498Z,101521.00
2023-04-17T18:55:27.546Z,101529.00
2023-04-17T19:05:27.274Z,101527.00
2023-04-17T19:15:27.405Z,101531.00
2023-04-17T19:25:27.326Z,101531.00
2023-04-17T19:35:27.285Z,101533.00
2023-04-17T19:45:27.439Z,101537.00
2023-04-17T19:55:27.538Z,101537.00
2023-04-17T20:05:34.394Z,101535.00
2023-04-17T20:15:34.359Z,101537.00
2023-04-17T20:25:34.362Z,101537.00
2023-04-17T20:35:34.379Z,101535.00
2023-04-17T20:45:34.479Z,101531.00
2023-04-17T20:55:34.432Z,101527.00
2023-04-17T21:05:34.402Z,101529.00
2023-04-17T21:15:34.503Z,101523.00
2023-04-17T21:25:35.318Z,101523.00
2023-04-17T21:35:35.432Z,101521.00
2023-04-17T21:45:56.690Z,101527.00
2023-04-17T21:55:56.483Z,101529.00
2023-04-17T22:05:59.588Z,101535.00
2023-04-17T22:15:59.595Z,101537.00
2023-04-17T22:25:59.520Z,101541.00
2023-04-17T22:35:59.699Z,101545.00
2023-04-17T22:45:59.695Z,101545.00
2023-04-17T22:55:59.538Z,101543.00
2023-04-17T23:05:59.572Z,101543.00
2023-04-17T23:15:59.765Z,101543.00
2023-04-17T23:25:59.579Z,101537.00
2023-04-17T23:35:59.626Z,101541.00
2023-04-17T23:46:00.458Z,101539.00
2023-04-17T23:56:00.980Z,101537.00
